createdAt,value
2023-05-21T00:03:31.005Z,17.58
2023-05-21T00:08:34.448Z,17.67
2023-05-21T00:13:38.704Z,17.38
2023-05-21T00:18:43.405Z,17.30
2023-05-21T00:23:48.443Z,16.92
2023-05-21T00:28:51.576Z,17.30
2023-05-21T00:33:56.358Z,16.77
2023-05-21T00:38:59.559Z,18.00
2023-05-21T00:44:03.421Z,19.85
2023-05-21T00:49:09.202Z,17.67
2023-05-21T00:54:13.216Z,17.05
2023-05-21T00:59:17.251Z,21.33
2023-05-21T01:04:24.620Z,17.63
2023-05-21T01:09:29.339Z,20.05
2023-05-21T01:14:35.250Z,19.98
2023-05-21T01:19:44.276Z,18.48
2023-05-21T01:24:51.327Z,19.92
2023-05-21T01:29:55.367Z,19.52
2023-05-21T01:35:07.297Z,19.15
2023-05-21T01:40:16.420Z,22.30
2023-05-21T01:45:21.229Z,21.42
2023-05-21T01:50:25.835Z,19.20
2023-05-21T01:55:30.892Z,19.25
2023-05-21T02:00:35.118Z,20.73
2023-05-21T02:05:38.398Z,24.48
2023-05-21T02:10:43.065Z,20.80
2023-05-21T02:15:47.142Z,19.48
2023-05-21T02:20:50.479Z,20.23
2023-05-21T02:25:55.024Z,19.77
2023-05-21T02:30:58.339Z,20.38
2023-05-21T02:36:01.571Z,22.10
2023-05-21T02:41:06.405Z,20.02
2023-05-21T02:46:09.940Z,21.77
2023-05-21T02:51:13.243Z,22.55
2023-05-21T02:56:18.788Z,19.95
2023-05-21T03:01:22.069Z,21.27
2023-05-21T03:06:25.162Z,21.05
2023-05-21T03:11:29.918Z,22.00
2023-05-21T03:16:35.764Z,22.13
2023-05-21T03:21:39.200Z,21.92
2023-05-21T03:26:56.427Z,23.92
2023-05-21T03:31:59.749Z,21.83
2023-05-21T03:37:02.994Z,22.60
2023-05-21T03:42:07.735Z,21.90
2023-05-21T03:47:10.812Z,22.35
2023-05-21T03:52:14.056Z,22.27
2023-05-21T03:57:18.717Z,21.27
2023-05-21T04:02:23.295Z,23.20
2023-05-21T04:07:27.226Z,21.83
2023-05-21T04:12:31.766Z,20.85
2023-05-21T04:17:35.667Z,21.52
2023-05-21T04:22:38.904Z,21.10
2023-05-21T04:27:47.811Z,22.33
2023-05-21T04:32:53.035Z,22.63
2023-05-21T04:37:56.267Z,21.33
2023-05-21T04:43:01.943Z,20.95
2023-05-21T04:48:05.536Z,24.02
2023-05-21T04:53:08.806Z,24.65
2023-05-21T04:58:13.343Z,21.48
2023-05-21T05:03:16.779Z,21.45
2023-05-21T05:08:20.195Z,20.70
2023-05-21T05:13:24.832Z,20.98
2023-05-21T05:18:28.013Z,22.20
2023-05-21T05:23:31.412Z,20.52
2023-05-21T05:28:35.934Z,23.67
2023-05-21T05:33:39.065Z,20.40
2023-05-21T05:38:44.362Z,19.30
2023-05-21T05:43:49.170Z,18.90
2023-05-21T05:48:52.786Z,18.83
2023-05-21T05:53:55.897Z,18.17
2023-05-21T05:59:00.712Z,18.23
2023-05-21T06:04:04.182Z,17.13
2023-05-21T06:09:07.588Z,17.83
2023-05-21T06:14:13.348Z,17.23
2023-05-21T06:19:16.707Z,16.27
2023-05-21T06:24:20.304Z,16.27
2023-05-21T06:29:25.048Z,17.88
2023-05-21T06:34:28.750Z,16.75
2023-05-21T06:39:32.199Z,15.93
2023-05-21T06:44:36.723Z,16.10
2023-05-21T06:49:39.964Z,15.57
2023-05-21T06:54:43.649Z,15.98
2023-05-21T06:59:48.576Z,15.88
2023-05-21T07:04:52.024Z,15.65
2023-05-21T07:10:01.798Z,15.70
2023-05-21T07:15:07.264Z,16.05
2023-05-21T07:20:12.566Z,16.42
2023-05-21T07:25:15.852Z,16.90
2023-05-21T07:30:22.832Z,14.23
2023-05-21T07:35:26.407Z,14.23
2023-05-21T07:40:29.616Z,14.60
2023-05-21T07:45:37.119Z,14.55
2023-05-21T07:50:40.369Z,14.18
2023-05-21T07:55:48.678Z,13.35
2023-05-21T08:00:53.994Z,14.68
2023-05-21T08:06:03.123Z,13.07
2023-05-21T08:11:06.516Z,15.23
2023-05-21T08:16:13.661Z,12.65
2023-05-21T08:21:17.562Z,12.25
2023-05-21T08:26:21.566Z,11.82
2023-05-21T08:31:29.261Z,12.73
2023-05-21T08:36:33.131Z,11.27
2023-05-21T08:41:41.144Z,11.32
2023-05-21T08:46:46.885Z,11.20
2023-05-21T08:51:55.777Z,11.32
2023-05-21T08:57:00.914Z,11.20
2023-05-21T09:02:09.632Z,11.55
2023-05-21T09:07:12.923Z,10.63
2023-05-21T09:12:20.893Z,11.20
2023-05-21T09:17:25.747Z,11.38
2023-05-21T09:22:31.662Z,11.15
2023-05-21T09:27:34.816Z,11.02
2023-05-21T09:32:39.778Z,13.90
2023-05-21T09:37:45.230Z,10.02
2023-05-21T09:42:50.593Z,11.70
2023-05-21T09:47:58.347Z,11.20
2023-05-21T09:53:01.484Z,10.98
2023-05-21T09:58:04.862Z,10.05
2023-05-21T10:03:13.893Z,11.10
2023-05-21T10:08:19.922Z,10.52
2023-05-21T10:13:24.752Z,9.70
2023-05-21T10:18:31.046Z,12.00
2023-05-21T10:23:37.797Z,10.38
2023-05-21T10:28:41.860Z,8.82
2023-05-21T10:33:46.732Z,9.60
2023-05-21T10:38:53.291Z,10.38
2023-05-21T10:44:10.758Z,11.15
2023-05-21T10:49:31.726Z,11.70
2023-05-21T10:55:19.837Z,8.95
2023-05-21T11:00:23.364Z,8.95
2023-05-21T11:05:52.705Z,8.63
2023-05-21T11:10:58.448Z,9.00
2023-05-21T11:16:16.138Z,8.20
2023-05-21T11:21:31.443Z,7.13
2023-05-21T11:27:07.294Z,7.65
2023-05-21T11:32:12.305Z,6.80
2023-05-21T11:37:34.976Z,8.05
2023-05-21T11:42:42.618Z,10.70
2023-05-21T11:47:46.213Z,8.00
2023-05-21T11:52:54.344Z,7.10
2023-05-21T11:57:57.757Z,8.20
2023-05-21T12:03:14.969Z,8.63
2023-05-21T12:08:25.998Z,10.90
2023-05-21T12:13:29.526Z,8.68
2023-05-21T12:18:38.649Z,10.95
2023-05-21T12:23:43.233Z,8.07
2023-05-21T12:28:55.266Z,8.25
2023-05-21T12:33:58.669Z,7.70
2023-05-21T12:39:03.931Z,7.57
2023-05-21T12:44:09.043Z,7.40
2023-05-21T12:49:37.256Z,8.07
2023-05-21T12:54:43.716Z,7.45
2023-05-21T12:59:50.594Z,7.70
2023-05-21T13:04:57.893Z,8.48
2023-05-21T13:10:05.381Z,8.05
2023-05-21T13:15:12.125Z,7.47
2023-05-21T13:20:21.649Z,8.93
2023-05-21T13:25:29.310Z,8.88
2023-05-21T13:30:36.175Z,24.25
2023-05-21T13:35:39.842Z,9.00
2023-05-21T13:40:59.038Z,8.82
2023-05-21T13:46:04.560Z,7.50
2023-05-21T13:51:07.984Z,7.90
2023-05-21T13:56:23.129Z,8.52
2023-05-21T14:01:32.802Z,8.85
2023-05-21T14:06:36.836Z,8.05
2023-05-21T14:11:47.782Z,7.03
2023-05-21T14:16:51.211Z,8.75
2023-05-21T14:21:54.726Z,5.95
2023-05-21T14:27:05.724Z,6.28
2023-05-21T14:32:09.810Z,7.35
2023-05-21T14:37:16.215Z,7.00
2023-05-21T14:42:21.743Z,8.82
2023-05-21T14:47:28.104Z,7.63
2023-05-21T14:52:31.425Z,6.93
2023-05-21T14:57:41.058Z,6.93
2023-05-21T15:02:44.603Z,9.20
2023-05-21T15:07:47.964Z,6.45
2023-05-21T15:12:53.325Z,7.50
2023-05-21T15:17:57.877Z,7.75
2023-05-21T15:23:16.829Z,6.13
2023-05-21T15:28:23.075Z,6.40
2023-05-21T15:33:28.362Z,7.32
2023-05-21T15:38:32.811Z,6.03
2023-05-21T15:43:38.193Z,6.00
2023-05-21T15:48:41.729Z,6.43
2023-05-21T15:53:53.004Z,6.03
2023-05-21T15:59:00.132Z,8.00
2023-05-21T16:04:06.834Z,6.85
2023-05-21T16:09:11.345Z,7.28
2023-05-21T16:14:18.403Z,8.02
2023-05-21T16:19:21.685Z,5.80
2023-05-21T16:24:25.075Z,6.43
2023-05-21T16:29:29.816Z,7.82
2023-05-21T16:34:34.526Z,7.47
2023-05-21T16:39:40.141Z,7.22
2023-05-21T16:44:44.990Z,7.53
2023-05-21T16:49:51.561Z,8.63
2023-05-21T16:54:54.846Z,8.00
2023-05-21T17:00:05.150Z,7.05
2023-05-21T17:05:09.327Z,7.38
2023-05-21T17:10:16.184Z,6.53
2023-05-21T17:15:20.813Z,7.13
2023-05-21T17:20:25.704Z,6.40
2023-05-21T17:25:29.135Z,6.70
2023-05-21T17:30:34.116Z,7.63
2023-05-21T17:35:38.051Z,5.63
2023-05-21T17:40:41.657Z,8.50
2023-05-21T17:45:46.406Z,8.10
2023-05-21T17:50:52.781Z,6.60
2023-05-21T17:55:56.553Z,6.47
2023-05-21T18:01:02.919Z,6.45
2023-05-21T18:06:09.410Z,5.97
2023-05-21T18:11:12.953Z,7.40
2023-05-21T18:16:17.988Z,8.77
2023-05-21T18:21:21.076Z,5.90
2023-05-21T18:26:30.268Z,8.13
2023-05-21T18:31:46.933Z,6.60
2023-05-21T18:36:50.328Z,10.00
2023-05-21T18:42:11.373Z,9.18
2023-05-21T18:47:17.157Z,8.10
2023-05-21T18:52:23.890Z,7.28
2023-05-21T18:57:27.441Z,7.82
2023-05-21T19:02:32.398Z,7.93
2023-05-21T19:07:36.283Z,8.15
2023-05-21T19:12:42.634Z,7.90
2023-05-21T19:17:47.638Z,9.68
2023-05-21T19:22:51.593Z,7.53
2023-05-21T19:27:56.619Z,7.60
2023-05-21T19:33:02.157Z,7.15
2023-05-21T19:38:08.546Z,7.95
2023-05-21T19:43:12.874Z,7.95
2023-05-21T19:48:24.761Z,7.97
2023-05-21T19:53:28.144Z,6.75
2023-05-21T19:58:34.075Z,7.22
2023-05-21T20:03:38.880Z,7.45
2023-05-21T20:08:48.300Z,8.85
2023-05-21T20:13:51.433Z,6.90
2023-05-21T20:19:04.140Z,6.72
2023-05-21T20:24:08.695Z,7.20
2023-05-21T20:29:12.079Z,6.72
2023-05-21T20:34:17.902Z,6.10
2023-05-21T20:39:25.708Z,6.63
2023-05-21T20:44:29.973Z,6.38
2023-05-21T20:50:00.233Z,6.28
2023-05-21T20:55:08.375Z,6.70
2023-05-21T21:00:28.966Z,9.38
2023-05-21T21:05:51.904Z,6.55
2023-05-21T21:11:03.760Z,8.93
2023-05-21T21:16:10.857Z,6.35
2023-05-21T21:21:16.095Z,7.50
2023-05-21T21:26:22.486Z,9.60
2023-05-21T21:31:28.665Z,6.40
2023-05-21T21:36:36.591Z,5.90
2023-05-21T21:41:50.576Z,6.93
2023-05-21T21:46:59.171Z,5.85
2023-05-21T21:52:07.295Z,6.70
2023-05-21T21:57:12.322Z,6.45
2023-05-21T22:02:20.676Z,7.57
2023-05-21T22:07:32.165Z,6.60
2023-05-21T22:12:37.856Z,8.38
2023-05-21T22:17:50.253Z,6.45
2023-05-21T22:23:01.333Z,8.13
2023-05-21T22:28:07.383Z,8.30
2023-05-21T22:33:16.026Z,5.68
2023-05-21T22:38:25.317Z,6.88
2023-05-21T22:43:29.635Z,9.65
2023-05-21T22:48:37.431Z,7.13
2023-05-21T22:53:44.698Z,6.85
2023-05-21T22:58:49.024Z,8.02
2023-05-21T23:03:55.914Z,6.40
2023-05-21T23:09:02.703Z,7.57
2023-05-21T23:14:11.004Z,6.57
2023-05-21T23:19:17.494Z,6.18
2023-05-21T23:24:23.900Z,9.98
2023-05-21T23:29:29.758Z,6.78
2023-05-21T23:34:34.986Z,9.15
2023-05-21T23:39:43.015Z,6.82
2023-05-21T23:44:51.093Z,13.07
2023-05-21T23:50:04.621Z,6.85
2023-05-21T23:55:17.056Z,11.40
